Time;durP1;ratioP1;P1;durP2;ratioP2;P2;SDS_P1;SDS_P2;PMS_P1;PMS_P2;Temp;Humidity;BMP_temperature;BMP_pressure;BME280_temperature;BME280_humidity;BME280_pressure;Samples;Min_cycle;Max_cycle;Signal;HPM_P1;HPM_P2
2022/11/29 00:02:16;;;;;;;133.63;20.75;;;8.80;98.80;;;;;;4990853;28;20127;-69
2022/11/29 00:04:43;;;;;;;48.53;17.10;;;;;;;;;;4991697;28;20119;-69
2022/11/29 00:07:10;;;;;;;44.05;16.42;;;;;;;;;;4990782;28;20054;-69
2022/11/29 00:09:37;;;;;;;47.03;15.48;;;;;;;;;;4990699;28;20134;-69
2022/11/29 00:12:12;;;;;;;45.35;15.30;;;7.70;95.90;;;;;;4991884;28;20053;-69
2022/11/29 00:14:40;;;;;;;52.08;16.63;;;;;;;;;;4990759;28;20064;-66
2022/11/29 00:17:08;;;;;;;61.33;16.55;;;7.10;98.40;;;;;;4990590;28;20058;-67
2022/11/29 00:19:35;;;;;;;45.03;15.70;;;8.00;93.30;;;;;;4990579;28;20054;-67
2022/11/29 00:22:02;;;;;;;42.63;15.35;;;7.90;93.80;;;;;;4990665;28;20050;-67
2022/11/29 00:24:30;;;;;;;54.42;15.75;;;7.90;98.50;;;;;;4990332;28;20056;-67
2022/11/29 00:26:57;;;;;;;49.00;16.30;;;8.10;98.70;;;;;;4990687;28;20103;-67
2022/11/29 00:29:24;;;;;;;52.55;17.85;;;;;;;;;;4990056;28;20054;-67
2022/11/29 00:31:50;;;;;;;53.40;17.17;;;8.70;97.20;;;;;;4990526;28;20054;-67
2022/11/29 00:34:18;;;;;;;59.05;16.60;;;8.00;98.50;;;;;;4990318;28;20069;-67
2022/11/29 00:36:45;;;;;;;54.28;16.33;;;;;;;;;;4991560;28;20054;-67
2022/11/29 00:39:12;;;;;;;97.40;18.50;;;;;;;;;;4990282;28;20557;-66
2022/11/29 00:41:39;;;;;;;149.38;20.42;;;8.50;98.80;;;;;;4990165;28;20577;-67
2022/11/29 00:44:06;;;;;;;88.78;19.70;;;;;;;;;;4991262;28;20085;-66
2022/11/29 00:46:33;;;;;;;129.77;20.63;;;7.60;98.40;;;;;;4990340;28;20055;-67
2022/11/29 00:49:00;;;;;;;81.70;18.80;;;8.30;97.30;;;;;;4990331;28;20064;-67
2022/11/29 00:51:28;;;;;;;93.15;18.75;;;8.40;97.00;;;;;;4990283;28;20062;-66
2022/11/29 00:53:55;;;;;;;82.57;18.77;;;7.90;96.70;;;;;;4989945;28;20415;-67
2022/11/29 00:56:21;;;;;;;66.25;17.27;;;7.90;98.50;;;;;;4989830;28;20049;-67
2022/11/29 00:58:48;;;;;;;53.13;16.38;;;8.10;98.50;;;;;;4990315;28;20079;-67
2022/11/29 01:01:15;;;;;;;66.43;18.15;;;7.00;95.90;;;;;;4989793;28;20060;-67
2022/11/29 01:03:42;;;;;;;68.20;17.63;;;8.20;98.70;;;;;;4989991;28;20058;-67
2022/11/29 01:06:10;;;;;;;67.57;18.50;;;8.00;92.40;;;;;;4990048;28;20053;-66
2022/11/29 01:08:38;;;;;;;57.90;15.68;;;8.30;94.30;;;;;;4989853;28;20054;-66
2022/11/29 01:11:06;;;;;;;57.03;17.10;;;8.30;94.50;;;;;;4989465;28;20058;-67
2022/11/29 01:13:33;;;;;;;55.55;15.95;;;;;;;;;;4989717;28;20064;-67
2022/11/29 01:16:00;;;;;;;52.10;15.88;;;;;;;;;;4989758;28;20050;-67
2022/11/29 01:18:29;;;;;;;56.05;16.70;;;;;;;;;;4989796;28;20046;-66
2022/11/29 01:20:57;;;;;;;43.50;15.20;;;6.90;98.10;;;;;;4989476;28;20058;-67
2022/11/29 01:23:24;;;;;;;71.55;15.93;;;7.80;98.60;;;;;;4989508;28;20587;-66
2022/11/29 01:25:58;;;;;;;107.60;18.65;;;8.70;98.80;;;;;;4989563;28;20054;-67
2022/11/29 01:28:24;;;;;;;142.50;20.48;;;7.90;98.50;;;;;;4989847;28;20054;-67
2022/11/29 01:30:51;;;;;;;75.53;17.75;;;;;;;;;;4991010;28;20436;-67
2022/11/29 01:33:18;;;;;;;101.97;18.05;;;;;;;;;;4989109;28;20336;-67
2022/11/29 01:35:48;;;;;;;86.63;19.05;;;8.00;92.40;;;;;;4989556;28;20610;-67
2022/11/29 01:38:14;;;;;;;97.68;18.00;;;7.70;96.10;;;;;;4990807;28;20129;-68
2022/11/29 01:40:41;;;;;;;80.25;17.90;;;8.20;98.60;;;;;;4990389;28;20043;-67
2022/11/29 01:43:15;;;;;;;82.07;18.90;;;7.90;92.40;;;;;;4990354;28;20401;-67
2022/11/29 01:45:42;;;;;;;81.68;17.80;;;;;;;;;;4990578;28;20382;-67
2022/11/29 01:48:09;;;;;;;92.68;18.95;;;8.10;98.70;;;;;;4989072;28;20414;-67
2022/11/29 01:50:36;;;;;;;99.53;18.13;;;8.00;98.60;;;;;;4989245;28;20141;-67
2022/11/29 01:53:03;;;;;;;97.55;19.08;;;7.60;98.50;;;;;;4988942;28;20060;-68
2022/11/29 01:55:30;;;;;;;103.70;19.35;;;7.40;98.50;;;;;;4989096;28;20175;-68
2022/11/29 01:57:57;;;;;;;113.45;19.27;;;;;;;;;;4989209;28;20119;-68
2022/11/29 02:00:25;;;;;;;119.82;18.77;;;8.10;98.60;;;;;;4989037;28;20064;-67
2022/11/29 02:02:53;;;;;;;106.82;19.65;;;7.60;98.60;;;;;;4988816;28;20411;-67
2022/11/29 02:05:20;;;;;;;121.20;20.13;;;;;;;;;;4988933;28;20050;-67
2022/11/29 02:07:49;;;;;;;109.80;20.08;;;7.10;98.40;;;;;;4990500;28;20419;-67
2022/11/29 02:10:16;;;;;;;102.07;18.83;;;7.80;98.70;;;;;;4988996;28;20064;-67
2022/11/29 02:12:51;;;;;;;102.07;19.20;;;7.90;92.40;;;;;;4988775;28;20483;-67
2022/11/29 02:15:37;;;;;;;124.60;20.23;;;8.20;98.80;;;;;;4990361;28;20050;-69
2022/11/29 02:18:06;;;;;;;174.98;20.48;;;7.50;98.50;;;;;;4988983;28;20552;-69
2022/11/29 02:20:55;;;;;;;156.65;19.45;;;7.90;92.40;;;;;;4988804;28;20145;-70
2022/11/29 02:23:40;;;;;;;220.02;20.33;;;7.50;98.60;;;;;;4987677;28;20133;-69
2022/11/29 02:26:14;;;;;;;118.75;19.15;;;7.90;92.50;;;;;;4989062;28;20057;-70
2022/11/29 02:29:10;;;;;;;109.13;18.77;;;7.30;98.60;;;;;;4988337;28;20046;-70
2022/11/29 02:32:02;;;;;;;170.18;19.13;;;8.20;97.50;;;;;;4988588;28;20062;-69
2022/11/29 02:34:50;;;;;;;105.28;18.25;;;7.40;98.60;;;;;;4989861;28;20047;-69
2022/11/29 02:37:37;;;;;;;98.07;17.80;;;7.90;92.50;;;;;;4988580;28;20046;-69
2022/11/29 02:40:14;;;;;;;101.72;18.90;;;8.10;98.80;;;;;;4989593;28;20053;-69
2022/11/29 02:43:05;;;;;;;104.68;18.23;;;8.00;98.60;;;;;;4989854;28;20060;-70
2022/11/29 02:45:44;;;;;;;107.40;17.52;;;8.20;98.70;;;;;;4988978;28;20058;-70
2022/11/29 02:48:26;;;;;;;116.78;19.48;;;7.60;98.70;;;;;;4989699;28;20061;-69
2022/11/29 02:50:57;;;;;;;159.18;19.15;;;7.50;92.40;;;;;;4988636;28;20058;-69
2022/11/29 02:53:26;;;;;;;102.53;19.05;;;8.00;98.70;;;;;;4989484;28;20819;-69
2022/11/29 02:55:56;;;;;;;90.72;17.10;;;8.20;98.80;;;;;;4989500;28;20050;-69
2022/11/29 02:58:25;;;;;;;119.88;18.50;;;8.00;92.50;;;;;;4988301;28;20059;-69
2022/11/29 03:00:57;;;;;;;97.60;17.33;;;8.10;94.30;;;;;;4988078;28;20062;-69
2022/11/29 03:03:26;;;;;;;106.95;17.60;;;8.10;92.60;;;;;;4988153;28;20141;-69
2022/11/29 03:05:57;;;;;;;119.35;18.05;;;7.90;98.60;;;;;;4989402;28;20061;-69
2022/11/29 03:08:27;;;;;;;153.38;18.30;;;6.90;98.40;;;;;;4988405;28;20047;-70
2022/11/29 03:10:58;;;;;;;120.60;18.20;;;8.10;98.70;;;;;;4988961;28;20451;-70
2022/11/29 03:13:30;;;;;;;116.15;18.23;;;7.80;95.40;;;;;;4988111;28;20058;-70
2022/11/29 03:15:59;;;;;;;129.75;18.38;;;7.90;98.70;;;;;;4988221;28;20503;-70
2022/11/29 03:18:32;;;;;;;157.25;18.60;;;7.70;98.70;;;;;;4989390;28;20049;-70
2022/11/29 03:21:07;;;;;;;223.52;19.73;;;7.70;98.60;;;;;;4988315;28;20061;-70
2022/11/29 03:23:36;;;;;;;108.47;16.77;;;8.10;97.00;;;;;;4987729;28;20133;-70
2022/11/29 03:26:05;;;;;;;168.60;17.90;;;7.70;93.70;;;;;;4987973;28;20054;-70
2022/11/29 03:28:33;;;;;;;109.70;17.67;;;7.70;98.80;;;;;;4988099;28;20484;-70
2022/11/29 03:31:05;;;;;;;140.80;18.20;;;7.10;98.60;;;;;;4988077;28;20133;-70
2022/11/29 03:33:36;;;;;;;110.10;17.95;;;7.80;98.20;;;;;;4987608;28;20504;-70
2022/11/29 03:36:06;;;;;;;97.68;17.52;;;7.90;98.70;;;;;;4990990;28;20415;-70
2022/11/29 03:38:38;;;;;;;96.88;17.27;;;7.90;92.50;;;;;;5007288;28;20400;-70
2022/11/29 03:41:13;;;;;;;128.70;19.17;;;7.90;92.60;;;;;;5003648;28;20396;-70
2022/11/29 03:43:41;;;;;;;136.65;18.58;;;7.80;93.60;;;;;;5094052;28;20052;-70
2022/11/29 03:46:10;;;;;;;126.45;17.42;;;7.70;98.80;;;;;;5094866;28;20060;-69
2022/11/29 03:48:37;;;;;;;117.65;17.83;;;8.50;99.00;;;;;;5094188;28;20059;-69
2022/11/29 03:51:06;;;;;;;114.10;18.08;;;8.00;98.80;;;;;;5093722;28;20482;-70
2022/11/29 03:53:34;;;;;;;99.95;17.13;;;;;;;;;;5072230;28;20127;-70
2022/11/29 03:56:01;;;;;;;111.35;18.48;;;8.30;99.00;;;;;;4990552;28;20061;-70
2022/11/29 03:58:44;;;;;;;84.10;16.02;;;7.80;96.50;;;;;;4991192;28;20058;-70
2022/11/29 04:01:52;;;;;;;117.95;17.95;;;7.70;98.90;;;;;;4991079;28;20060;-70
2022/11/29 04:04:36;;;;;;;106.85;18.15;;;7.90;98.90;;;;;;4991495;28;20050;-70
2022/11/29 04:07:08;;;;;;;87.90;16.33;;;8.10;98.80;;;;;;4990988;28;20770;-70
2022/11/29 04:09:43;;;;;;;101.13;18.13;;;7.90;98.90;;;;;;4990632;28;20061;-70
2022/11/29 04:12:41;;;;;;;175.60;19.90;;;7.90;92.70;;;;;;4992210;28;20149;-70
2022/11/29 04:15:29;;;;;;;200.77;19.10;;;7.90;92.70;;;;;;4991997;28;20051;-70
2022/11/29 04:18:06;;;;;;;77.80;15.90;;;7.90;92.70;;;;;;4991476;28;20050;-70
2022/11/29 04:21:00;;;;;;;100.03;17.85;;;7.70;98.90;;;;;;4990712;28;20058;-70
2022/11/29 04:24:09;;;;;;;65.70;14.55;;;8.00;98.50;;;;;;4989948;28;20065;-70
2022/11/29 04:27:15;;;;;;;87.85;16.13;;;7.90;92.70;;;;;;4974659;28;20072;-70
2022/11/29 04:30:11;;;;;;;75.22;16.27;;;7.20;98.80;;;;;;4991609;28;20081;-70
2022/11/29 04:33:12;;;;;;;95.63;18.65;;;8.20;99.00;;;;;;4991060;28;20129;-70
2022/11/29 04:35:47;;;;;;;97.45;17.73;;;8.10;93.60;;;;;;4990515;28;20053;-70
2022/11/29 04:38:26;;;;;;;125.40;17.77;;;7.00;98.80;;;;;;4991399;28;20421;-70
2022/11/29 04:41:13;;;;;;;161.80;19.73;;;7.70;96.90;;;;;;4990576;28;20058;-70
2022/11/29 04:44:05;;;;;;;200.30;18.70;;;7.90;92.70;;;;;;4991317;28;20054;-70
2022/11/29 04:47:06;;;;;;;78.43;16.77;;;8.00;98.90;;;;;;4991164;28;20058;-70
2022/11/29 04:49:54;;;;;;;117.53;17.05;;;7.90;92.70;;;;;;4915559;29;20122;-70
2022/11/29 04:52:32;;;;;;;78.50;16.25;;;7.90;92.70;;;;;;4991229;28;20427;-70
2022/11/29 04:55:02;;;;;;;86.95;17.58;;;7.90;92.70;;;;;;4991380;28;20129;-70
2022/11/29 04:57:35;;;;;;;98.85;18.35;;;8.40;99.00;;;;;;4989811;28;20058;-70
2022/11/29 05:00:06;;;;;;;164.13;18.92;;;7.90;92.70;;;;;;4990038;28;20073;-70
2022/11/29 05:02:34;;;;;;;147.18;20.13;;;8.00;99.00;;;;;;4989870;28;20058;-70
2022/11/29 05:05:06;;;;;;;74.20;16.65;;;7.80;92.70;;;;;;4989976;28;20100;-70
2022/11/29 05:07:37;;;;;;;89.30;14.98;;;7.80;92.70;;;;;;4991003;28;20043;-70
2022/11/29 05:10:13;;;;;;;103.50;15.68;;;8.00;98.90;;;;;;4990199;28;20060;-70
2022/11/29 05:12:44;;;;;;;82.47;15.98;;;7.70;97.70;;;;;;4989583;28;20089;-70
2022/11/29 05:15:25;;;;;;;76.50;15.02;;;6.70;98.00;;;;;;4991119;28;20046;-70
2022/11/29 05:17:56;;;;;;;80.30;15.93;;;7.80;92.70;;;;;;4989743;28;20057;-70
2022/11/29 05:20:26;;;;;;;71.65;15.73;;;7.60;99.00;;;;;;4989693;28;20054;-70
2022/11/29 05:23:02;;;;;;;93.80;15.93;;;8.40;95.30;;;;;;4989221;28;20060;-70
2022/11/29 05:25:37;;;;;;;88.55;14.75;;;7.90;99.10;;;;;;4990817;28;20135;-70
2022/11/29 05:28:07;;;;;;;64.97;15.93;;;7.90;99.10;;;;;;4989889;28;20050;-70
2022/11/29 05:30:45;;;;;;;85.18;15.27;;;7.30;98.80;;;;;;4989549;28;20058;-70
2022/11/29 05:33:15;;;;;;;59.45;13.85;;;7.40;98.80;;;;;;4989625;28;20055;-70
2022/11/29 05:35:52;;;;;;;76.63;16.42;;;8.00;99.10;;;;;;4989520;28;20058;-70
2022/11/29 05:38:31;;;;;;;67.47;15.27;;;7.20;94.80;;;;;;4989460;28;20064;-71
2022/11/29 05:41:04;;;;;;;62.20;14.27;;;7.40;98.80;;;;;;4989502;28;20099;-71
2022/11/29 05:43:47;;;;;;;67.78;14.88;;;8.00;97.30;;;;;;4989120;28;20059;-71
2022/11/29 05:46:18;;;;;;;62.22;14.40;;;8.20;93.90;;;;;;4989095;28;20054;-71
2022/11/29 05:48:48;;;;;;;66.72;12.95;;;7.70;92.60;;;;;;4989381;28;20138;-71
2022/11/29 05:51:20;;;;;;;76.60;14.52;;;8.00;97.70;;;;;;4988983;28;20054;-70
2022/11/29 05:53:50;;;;;;;60.13;13.85;;;7.60;99.00;;;;;;4988956;28;20054;-70
2022/11/29 05:56:25;;;;;;;68.10;14.73;;;8.70;95.90;;;;;;4989057;28;20054;-70
2022/11/29 05:58:56;;;;;;;71.80;12.75;;;8.40;97.50;;;;;;4988782;28;20061;-70
2022/11/29 06:01:23;;;;;;;71.13;13.50;;;7.40;98.90;;;;;;4989131;28;20062;-70
2022/11/29 06:03:59;;;;;;;45.10;11.55;;;7.60;98.00;;;;;;4990040;28;20076;-70
2022/11/29 06:06:30;;;;;;;52.05;12.65;;;7.60;98.90;;;;;;4988765;28;20058;-70
2022/11/29 06:08:59;;;;;;;48.47;12.18;;;7.80;99.10;;;;;;5034525;28;20040;-71
2022/11/29 06:11:28;;;;;;;45.90;11.70;;;7.60;92.70;;;;;;5091165;28;20489;-70
2022/11/29 06:14:04;;;;;;;49.03;12.23;;;7.60;97.40;;;;;;5090962;28;20063;-70
2022/11/29 06:17:17;;;;;;;41.58;11.85;;;7.70;99.00;;;;;;5092388;28;20524;-70
2022/11/29 06:19:59;;;;;;;50.47;11.23;;;7.60;92.70;;;;;;5064718;28;20056;-70
2022/11/29 06:22:44;;;;;;;53.72;12.60;;;7.40;99.10;;;;;;4988679;28;20069;-70
2022/11/29 06:25:16;;;;;;;57.07;13.07;;;7.80;99.20;;;;;;4988481;28;20060;-70
2022/11/29 06:28:05;;;;;;;51.38;12.73;;;7.70;99.10;;;;;;4989005;28;20310;-70
2022/11/29 06:30:38;;;;;;;44.13;12.90;;;7.60;92.70;;;;;;4988960;28;20133;-70
2022/11/29 06:33:07;;;;;;;52.58;12.75;;;7.60;92.70;;;;;;4989615;28;20087;-70
2022/11/29 06:35:42;;;;;;;50.35;12.50;;;7.70;99.00;;;;;;4988621;28;20124;-70
2022/11/29 06:38:09;;;;;;;;;;;7.60;92.90;;;;;;4988873;28;20058;-70
2022/11/29 06:40:37;;;;;;;41.78;11.80;;;7.30;92.70;;;;;;4988757;28;20300;-70
2022/11/29 06:43:04;;;;;;;28.67;9.82;;;7.40;99.10;;;;;;4988272;28;20141;-70
2022/11/29 06:45:32;;;;;;;36.50;11.07;;;7.80;94.80;;;;;;4989821;28;20129;-70
2022/11/29 06:48:01;;;;;;;42.90;11.82;;;7.40;92.70;;;;;;4989496;28;20060;-70
2022/11/29 06:50:33;;;;;;;51.50;12.73;;;7.90;99.20;;;;;;4988264;28;20065;-70
2022/11/29 06:53:02;;;;;;;39.28;11.27;;;7.40;92.70;;;;;;4987951;28;20057;-70
2022/11/29 06:55:32;;;;;;;107.47;15.63;;;7.70;92.80;;;;;;4988366;28;20062;-70
2022/11/29 06:58:03;;;;;;;82.80;14.15;;;7.00;98.30;;;;;;4987856;28;20056;-70
2022/11/29 07:00:34;;;;;;;68.43;15.00;;;7.50;99.20;;;;;;4988456;28;20408;-70
2022/11/29 07:03:31;;;;;;;66.05;14.48;;;7.50;93.70;;;;;;4988002;28;20068;-70
2022/11/29 07:05:58;;;;;;;52.38;13.65;;;;;;;;;;4973917;28;20054;-70
2022/11/29 07:08:25;;;;;;;49.78;13.55;;;;;;;;;;4989482;28;20058;-70
2022/11/29 07:10:54;;;;;;;52.15;13.70;;;7.40;99.20;;;;;;4991733;28;20084;-70
2022/11/29 07:13:21;;;;;;;45.67;12.57;;;5.50;92.30;;;;;;4990891;28;20092;-70
2022/11/29 07:15:53;;;;;;;48.63;13.13;;;7.30;99.20;;;;;;4999664;28;20506;-70
2022/11/29 07:18:23;;;;;;;41.25;12.57;;;7.40;92.70;;;;;;4988988;28;20061;-70
2022/11/29 07:20:57;;;;;;;41.85;11.90;;;6.50;98.90;;;;;;4991038;28;20056;-70
2022/11/29 07:23:28;;;;;;;41.17;12.30;;;7.30;92.70;;;;;;4990820;28;20060;-70
2022/11/29 07:26:00;;;;;;;38.58;11.82;;;6.50;98.00;;;;;;4992744;28;20430;-70
2022/11/29 07:28:34;;;;;;;47.08;12.50;;;6.30;98.80;;;;;;4992813;28;20385;-70
2022/11/29 07:31:04;;;;;;;45.08;13.27;;;7.40;99.30;;;;;;4991599;28;20183;-70
2022/11/29 07:33:34;;;;;;;43.25;12.90;;;6.90;99.00;;;;;;4991060;28;20062;-70
2022/11/29 07:36:06;;;;;;;46.28;13.48;;;6.40;98.30;;;;;;4991233;28;20129;-70
2022/11/29 07:38:40;;;;;;;54.38;13.80;;;7.50;98.90;;;;;;4991317;28;20046;-70
2022/11/29 07:41:10;;;;;;;79.90;15.57;;;7.30;92.70;;;;;;4992471;28;20601;-70
2022/11/29 07:43:41;;;;;;;62.22;14.45;;;7.50;98.90;;;;;;4990645;28;20058;-70
2022/11/29 07:46:07;;;;;;;79.53;15.88;;;7.30;99.20;;;;;;4991912;28;20053;-70
2022/11/29 07:48:34;;;;;;;58.60;14.65;;;;;;;;;;4990792;28;20443;-70
2022/11/29 07:51:02;;;;;;;66.18;14.35;;;7.30;99.00;;;;;;4991242;28;20415;-70
2022/11/29 07:53:29;;;;;;;65.65;15.02;;;7.50;99.10;;;;;;4991014;28;20538;-70
2022/11/29 07:55:56;;;;;;;55.88;14.80;;;7.50;99.10;;;;;;4992428;28;20050;-70
2022/11/29 07:58:23;;;;;;;62.03;16.13;;;;;;;;;;4992099;28;20137;-70
2022/11/29 08:00:50;;;;;;;64.45;15.35;;;7.10;99.10;;;;;;4992403;28;20057;-70
2022/11/29 08:03:17;;;;;;;60.17;14.70;;;;;;;;;;4991966;28;20419;-70
2022/11/29 08:05:45;;;;;;;49.97;13.32;;;7.40;99.10;;;;;;4992016;28;20438;-70
2022/11/29 08:08:13;;;;;;;58.75;15.05;;;7.70;99.30;;;;;;4990488;28;20055;-70
2022/11/29 08:10:41;;;;;;;65.72;15.65;;;;;;;;;;4989947;28;20042;-70
2022/11/29 08:13:07;;;;;;;81.93;17.20;;;7.50;97.10;;;;;;4989147;28;20054;-70
2022/11/29 08:15:34;;;;;;;60.58;15.07;;;8.50;99.60;;;;;;4990483;28;20137;-70
2022/11/29 08:18:01;;;;;;;61.92;15.63;;;7.60;99.30;;;;;;4991527;28;20652;-70
2022/11/29 08:20:28;;;;;;;72.50;17.30;;;;;;;;;;4988934;28;20056;-70
2022/11/29 08:22:55;;;;;;;55.15;14.75;;;7.50;93.00;;;;;;5001334;28;20056;-70
2022/11/29 08:25:24;;;;;;;49.97;14.57;;;7.20;94.60;;;;;;4991492;28;20050;-70
2022/11/29 08:27:50;;;;;;;58.97;14.40;;;8.50;99.60;;;;;;4990954;28;20046;-70
2022/11/29 08:30:21;;;;;;;55.28;15.18;;;7.10;99.30;;;;;;4990945;28;20553;-70
2022/11/29 08:32:48;;;;;;;54.78;15.35;;;;;;;;;;4989753;28;20051;-70
2022/11/29 08:35:14;;;;;;;42.80;14.55;;;7.90;99.40;;;;;;4990292;28;20054;-70
2022/11/29 08:37:41;;;;;;;46.60;15.30;;;6.90;99.30;;;;;;4989869;28;20038;-70
2022/11/29 08:40:09;;;;;;;50.03;15.30;;;5.80;92.60;;;;;;4989742;28;20133;-70
2022/11/29 08:42:37;;;;;;;45.55;13.63;;;7.80;99.30;;;;;;4989823;28;20050;-70
2022/11/29 08:45:05;;;;;;;50.10;15.27;;;8.40;95.90;;;;;;4991103;28;20526;-70
2022/11/29 08:47:39;;;;;;;46.38;14.70;;;;;;;;;;4986876;28;20046;-70
2022/11/29 08:50:09;;;;;;;45.10;13.55;;;6.80;92.80;;;;;;4990310;28;20058;-70
2022/11/29 08:55:23;;;;;;;38.95;13.43;;;7.60;93.00;;;;;;4989502;28;20505;-70
2022/11/29 08:57:51;;;;;;;39.90;13.40;;;8.40;99.50;;;;;;4989652;28;20047;-70
2022/11/29 09:00:20;;;;;;;51.45;15.23;;;8.00;99.40;;;;;;4989809;28;20046;-70
2022/11/29 09:02:47;;;;;;;37.80;13.57;;;;;;;;;;4987035;28;20455;-70
2022/11/29 09:05:14;;;;;;;47.50;14.23;;;;;;;;;;4989847;28;20346;-70
2022/11/29 09:07:41;;;;;;;163.20;20.85;;;8.50;99.60;;;;;;4989894;28;20074;-70
2022/11/29 09:10:10;;;;;;;37.25;12.40;;;8.20;99.50;;;;;;4991277;28;20046;-70
2022/11/29 09:12:36;;;;;;;44.42;14.18;;;7.00;99.20;;;;;;4989813;28;20599;-70
2022/11/29 09:15:05;;;;;;;37.83;11.90;;;7.80;99.30;;;;;;4989945;28;20191;-70
2022/11/29 09:17:32;;;;;;;39.20;13.80;;;7.70;99.50;;;;;;4989956;28;20081;-71
2022/11/29 09:19:59;;;;;;;37.63;13.23;;;;;;;;;;4990108;28;20053;-71
2022/11/29 09:22:26;;;;;;;44.15;12.52;;;7.80;99.50;;;;;;4990630;28;20046;-70
2022/11/29 09:24:52;;;;;;;36.35;12.80;;;7.80;99.40;;;;;;4991082;28;20054;-70
2022/11/29 09:27:20;;;;;;;34.72;11.85;;;;;;;;;;4990699;28;20467;-70
2022/11/29 09:29:46;;;;;;;35.90;12.45;;;8.10;99.50;;;;;;4989789;28;20410;-70
2022/11/29 09:32:14;;;;;;;36.63;12.60;;;7.70;92.90;;;;;;4987913;28;20053;-70
2022/11/29 09:34:41;;;;;;;33.30;12.85;;;8.20;99.40;;;;;;4990709;28;20053;-71
2022/11/29 09:37:08;;;;;;;34.97;12.27;;;7.70;99.00;;;;;;4989148;28;20102;-71
2022/11/29 09:39:35;;;;;;;36.20;11.98;;;;;;;;;;4989129;28;20062;-70
2022/11/29 09:42:12;;;;;;;34.00;11.80;;;6.70;93.10;;;;;;4988779;28;20062;-71
2022/11/29 09:44:45;;;;;;;34.72;12.77;;;7.90;95.60;;;;;;4986581;28;20050;-70
2022/11/29 09:47:20;;;;;;;33.60;12.40;;;8.80;95.30;;;;;;4988923;28;20088;-71
2022/11/29 09:49:55;;;;;;;34.08;12.93;;;7.80;99.40;;;;;;4991366;28;20053;-71
2022/11/29 09:52:31;;;;;;;44.28;13.23;;;8.10;99.40;;;;;;4988819;28;20054;-71
2022/11/29 09:55:01;;;;;;;39.90;13.07;;;7.80;92.80;;;;;;4988955;28;20058;-71
2022/11/29 09:57:28;;;;;;;32.28;12.07;;;;;;;;;;4986541;28;20057;-71
2022/11/29 09:59:57;;;;;;;34.53;11.68;;;7.80;92.80;;;;;;4988819;28;20137;-71
2022/11/29 10:02:28;;;;;;;30.52;11.35;;;7.80;99.40;;;;;;4988043;28;20054;-71
2022/11/29 10:04:56;;;;;;;34.80;11.32;;;7.90;96.20;;;;;;4987933;28;20050;-70
2022/11/29 10:07:26;;;;;;;31.42;11.50;;;7.90;99.30;;;;;;4985587;28;20056;-70
2022/11/29 10:09:55;;;;;;;33.28;10.98;;;7.90;92.80;;;;;;4988035;28;20115;-70
2022/11/29 10:12:25;;;;;;;28.92;11.57;;;8.80;93.80;;;;;;4988356;28;20059;-70
2022/11/29 10:14:55;;;;;;;27.17;11.15;;;7.90;92.80;;;;;;4988378;28;20053;-71
2022/11/29 10:17:35;;;;;;;28.77;10.35;;;7.90;92.80;;;;;;4988553;28;20415;-71
2022/11/29 10:20:04;;;;;;;26.60;10.63;;;7.90;92.80;;;;;;5042587;28;20060;-70
2022/11/29 10:22:38;;;;;;;30.30;10.63;;;7.90;92.80;;;;;;5092000;28;20056;-70
2022/11/29 10:25:05;;;;;;;27.42;10.80;;;7.10;99.00;;;;;;5090253;28;20048;-71
2022/11/29 10:27:32;;;;;;;32.20;9.93;;;;;;;;;;5006810;28;20509;-70
2022/11/29 10:30:01;;;;;;;34.42;11.50;;;;;;;;;;4987965;28;20046;-70
2022/11/29 10:32:30;;;;;;;26.90;10.68;;;8.00;97.30;;;;;;4988000;28;20046;-71
2022/11/29 10:34:59;;;;;;;29.55;11.48;;;;;;;;;;4988916;28;20058;-70
2022/11/29 10:37:28;;;;;;;34.10;10.98;;;7.90;99.30;;;;;;4988921;28;20126;-71
2022/11/29 10:39:57;;;;;;;30.55;11.25;;;8.00;92.70;;;;;;4988039;28;20133;-71
2022/11/29 10:45:14;;;;;;;31.03;11.33;;;8.00;99.40;;;;;;4987465;28;20058;-70
2022/11/29 10:47:42;;;;;;;21.50;9.35;;;8.10;99.30;;;;;;4987874;28;20080;-71
2022/11/29 10:50:13;;;;;;;27.35;10.68;;;7.40;98.30;;;;;;4987817;28;20062;-70
2022/11/29 10:52:40;;;;;;;30.77;10.75;;;8.10;95.70;;;;;;4988044;28;20435;-70
2022/11/29 10:55:09;;;;;;;29.50;10.55;;;8.20;99.30;;;;;;4983273;28;20054;-70
2022/11/29 10:58:08;;;;;;;28.91;10.34;;;8.00;92.80;;;;;;4473010;28;10001388;-70
2022/11/29 11:00:43;;;;;;;31.35;10.32;;;8.10;92.70;;;;;;4982633;28;20047;-70
2022/11/29 11:03:18;;;;;;;22.67;10.10;;;8.10;92.70;;;;;;4986258;28;20181;-70
2022/11/29 11:05:57;;;;;;;33.55;11.35;;;8.10;92.70;;;;;;4986295;28;20050;-70
2022/11/29 11:08:24;;;;;;;23.92;10.02;;;8.40;93.30;;;;;;4987491;28;20050;-70
2022/11/29 11:10:52;;;;;;;32.95;9.73;;;;;;;;;;4986133;28;20244;-70
2022/11/29 11:13:21;;;;;;;26.33;9.43;;;8.20;92.70;;;;;;4985912;28;20050;-70
2022/11/29 11:15:48;;;;;;;25.20;10.43;;;;;;;;;;4986447;28;21538;-70
2022/11/29 11:18:21;;;;;;;20.52;9.55;;;8.20;92.70;;;;;;4986296;28;20371;-71
2022/11/29 11:20:52;;;;;;;29.70;10.45;;;8.30;97.20;;;;;;4986541;28;20060;-70
2022/11/29 11:23:22;;;;;;;23.83;9.88;;;8.20;92.70;;;;;;4984677;28;20060;-70
2022/11/29 11:25:49;;;;;;;28.17;10.10;;;;;;;;;;4986398;28;20058;-70
2022/11/29 11:28:20;;;;;;;33.65;10.85;;;8.10;92.70;;;;;;4986596;28;20054;-70
2022/11/29 11:30:50;;;;;;;29.20;10.43;;;8.20;92.70;;;;;;4986704;28;20580;-70
2022/11/29 11:33:20;;;;;;;28.92;9.60;;;8.30;92.70;;;;;;4986156;28;20856;-70
2022/11/29 11:36:00;;;;;;;26.13;9.32;;;8.30;92.70;;;;;;4987441;28;20184;-70
2022/11/29 11:38:28;;;;;;;23.35;9.50;;;;;;;;;;4987481;28;20046;-70
2022/11/29 11:41:02;;;;;;;28.95;10.77;;;8.30;92.70;;;;;;4985851;28;20138;-70
2022/11/29 11:43:29;;;;;;;27.70;10.33;;;8.40;99.00;;;;;;4986173;28;20065;-69
2022/11/29 11:45:56;;;;;;;24.52;10.02;;;;;;;;;;4986066;28;20751;-70
2022/11/29 11:48:24;;;;;;;27.13;9.68;;;5.20;91.90;;;;;;4987054;28;20137;-70
2022/11/29 11:50:52;;;;;;;21.85;9.15;;;8.60;99.20;;;;;;4987303;28;20407;-70
2022/11/29 11:53:21;;;;;;;22.25;10.10;;;8.40;92.70;;;;;;4986344;28;20056;-70
2022/11/29 11:55:54;;;;;;;27.02;9.73;;;9.40;95.10;;;;;;4987736;28;20062;-70
2022/11/29 11:58:22;;;;;;;24.60;10.55;;;8.50;99.00;;;;;;4988831;28;20046;-70
2022/11/29 12:00:50;;;;;;;25.05;10.60;;;9.00;99.10;;;;;;4990571;28;20457;-69
2022/11/29 12:03:34;;;;;;;22.45;9.88;;;8.50;92.70;;;;;;4990027;28;20050;-69
2022/11/29 12:06:08;;;;;;;23.63;10.73;;;8.50;92.70;;;;;;4974578;28;20053;-69
2022/11/29 12:08:35;;;;;;;25.15;9.63;;;;;;;;;;4989289;28;20100;-69
2022/11/29 12:11:03;;;;;;;25.48;10.75;;;8.50;92.70;;;;;;4989791;28;20065;-69
2022/11/29 12:13:31;;;;;;;25.75;11.73;;;8.50;92.70;;;;;;4989118;28;20061;-69
2022/11/29 12:15:58;;;;;;;26.27;12.27;;;;;;;;;;4989275;28;20084;-69
2022/11/29 12:18:27;;;;;;;29.13;12.20;;;8.80;98.90;;;;;;4988280;28;20047;-69
2022/11/29 12:20:57;;;;;;;31.80;13.15;;;8.10;98.80;;;;;;4988413;28;20046;-69
2022/11/29 12:23:27;;;;;;;46.17;27.17;;;8.60;98.90;;;;;;4988256;28;20046;-70
2022/11/29 12:25:55;;;;;;;25.45;13.57;;;8.60;92.60;;;;;;4986595;28;20068;-70
2022/11/29 12:28:25;;;;;;;25.50;12.85;;;;;;;;;;4986038;28;20441;-70
2022/11/29 12:30:54;;;;;;;22.70;11.30;;;9.10;92.70;;;;;;4988969;28;20133;-69
2022/11/29 12:33:26;;;;;;;22.10;11.40;;;8.50;92.50;;;;;;4988998;28;20137;-70
2022/11/29 12:36:05;;;;;;;21.73;11.32;;;8.70;94.80;;;;;;4989250;28;20407;-69
2022/11/29 12:38:44;;;;;;;24.20;12.63;;;8.50;92.50;;;;;;4986965;28;20078;-69
2022/11/29 12:41:20;;;;;;;20.52;11.00;;;8.50;92.40;;;;;;4986970;28;20065;-69
2022/11/29 12:43:50;;;;;;;;;;;8.50;92.60;;;;;;4990825;28;20072;-69
2022/11/29 12:46:20;;;;;;;31.13;13.40;;;9.30;99.00;;;;;;4989581;28;19926;-69
2022/11/29 12:48:51;;;;;;;32.20;13.60;;;8.40;96.10;;;;;;4990391;28;20053;-69
2022/11/29 12:51:22;;;;;;;27.65;12.10;;;8.10;92.60;;;;;;4990157;28;20137;-69
2022/11/29 12:54:05;;;;;;;28.92;12.20;;;8.50;98.70;;;;;;4974931;28;20061;-70
2022/11/29 12:56:34;;;;;;;28.70;13.13;;;7.60;92.30;;;;;;4988889;28;20058;-69
2022/11/29 12:59:14;;;;;;;26.17;13.75;;;8.40;93.60;;;;;;4989136;28;20047;-69
2022/11/29 13:01:51;;;;;;;27.95;12.90;;;8.20;93.50;;;;;;4989021;28;20082;-70
2022/11/29 13:04:22;;;;;;;24.50;12.57;;;7.30;94.80;;;;;;4988894;28;20389;-70
2022/11/29 13:06:54;;;;;;;18.27;10.35;;;8.00;92.10;;;;;;4988685;28;20599;-70
2022/11/29 13:09:35;;;;;;;16.13;9.45;;;8.40;93.20;;;;;;4990168;28;20067;-69
2022/11/29 13:12:03;;;;;;;16.27;9.85;;;8.10;92.10;;;;;;4989073;28;20066;-69
2022/11/29 13:14:32;;;;;;;20.80;10.20;;;8.10;92.10;;;;;;4988631;28;20417;-70
2022/11/29 13:17:00;;;;;;;22.95;10.15;;;7.00;98.30;;;;;;4988366;28;20149;-69
2022/11/29 13:19:33;;;;;;;20.10;11.45;;;7.90;96.40;;;;;;4988856;28;20072;-69